Time;durP1;ratioP1;P1;durP2;ratioP2;P2;SDS_P1;SDS_P2;PMS_P1;PMS_P2;Temp;Humidity;BMP_temperature;BMP_pressure;BME280_temperature;BME280_humidity;BME280_pressure;Samples;Min_cycle;Max_cycle;Signal;HPM_P1;HPM_P2
2023/01/28 00:03:05;;;;;;;5.73;2.97;;;;;;;-0.82;100.00;101700.05;5095504;55;1138843;-69
2023/01/28 00:08:12;;;;;;;10.10;3.20;;;;;;;-0.82;100.00;101705.23;5068319;56;1138810;-70
2023/01/28 00:13:18;;;;;;;7.63;3.17;;;;;;;-0.85;100.00;101710.45;5086796;56;1140906;-66
2023/01/28 00:18:24;;;;;;;2.77;1.93;;;;;;;-0.91;100.00;101712.67;5109620;55;1138901;-70
2023/01/28 00:23:34;;;;;;;5.20;3.17;;;;;;;-0.95;100.00;101705.83;5081550;55;1138801;-68
2023/01/28 00:28:41;;;;;;;12.30;3.47;;;;;;;-1.04;100.00;101700.71;5179070;55;1138833;-67
2023/01/28 00:33:49;;;;;;;5.55;2.98;;;;;;;-1.12;100.00;101695.62;5118163;55;1140964;-67
2023/01/28 00:38:59;;;;;;;14.60;4.22;;;;;;;-1.22;100.00;101704.36;4927493;57;1138794;-69
2023/01/28 00:44:06;;;;;;;11.40;3.40;;;;;;;-1.25;100.00;101708.31;5040047;56;1140896;-70
2023/01/28 00:49:13;;;;;;;7.20;3.27;;;;;;;-1.29;100.00;101710.94;5131020;55;1140964;-68
2023/01/28 00:54:19;;;;;;;12.97;4.97;;;;;;;-1.31;100.00;101715.28;4914731;57;1138903;-71
2023/01/28 00:59:26;;;;;;;12.40;4.33;;;;;;;-1.36;100.00;101706.23;5142578;55;1140942;-71
2023/01/28 01:04:34;;;;;;;9.57;4.13;;;;;;;-1.37;100.00;101716.19;5176009;55;1141045;-69
2023/01/28 01:09:41;;;;;;;12.07;4.70;;;;;;;-1.38;100.00;101711.91;4960791;57;1138724;-66
2023/01/28 01:14:46;;;;;;;7.87;4.33;;;;;;;-1.42;100.00;101712.80;5188840;55;1141137;-69
2023/01/28 01:19:52;;;;;;;9.00;4.30;;;;;;;-1.39;100.00;101719.70;5185086;55;1139218;-68
2023/01/28 01:24:58;;;;;;;8.17;3.20;;;;;;;-1.43;100.00;101713.23;5125646;56;1138812;-69
2023/01/28 01:30:06;;;;;;;7.53;3.53;;;;;;;-1.45;100.00;101712.82;5105909;56;1138955;-70
2023/01/28 01:35:11;;;;;;;7.60;4.50;;;;;;;-1.50;100.00;101716.74;5126675;56;1138976;-68
2023/01/28 01:40:18;;;;;;;6.67;3.53;;;;;;;-1.55;100.00;101715.08;5140885;55;1139032;-69
2023/01/28 01:45:24;;;;;;;6.40;4.13;;;;;;;-1.62;100.00;101714.27;5120048;55;1138680;-67
2023/01/28 01:50:46;;;;;;;8.80;4.93;;;;;;;-1.61;100.00;101711.23;5123496;55;1138983;-66
2023/01/28 01:55:57;;;;;;;12.27;4.63;;;;;;;-1.52;100.00;101705.52;5208419;55;1138998;-70
2023/01/28 02:01:03;;;;;;;11.00;5.23;;;;;;;-1.44;100.00;101706.76;5231490;55;1141110;-71
2023/01/28 02:06:10;;;;;;;7.10;4.03;;;;;;;-1.45;100.00;101709.79;5203736;55;1140872;-69
2023/01/28 02:11:18;;;;;;;8.07;4.77;;;;;;;-1.40;100.00;101710.19;5040468;57;1138945;-69
2023/01/28 02:16:25;;;;;;;10.30;5.87;;;;;;;-1.45;100.00;101700.70;5235066;55;1138683;-66
2023/01/28 02:21:57;;;;;;;9.93;5.47;;;;;;;-1.43;100.00;101717.56;5168121;55;1140789;-68
2023/01/28 02:27:33;;;;;;;12.47;6.00;;;;;;;-1.38;100.00;101718.39;5128714;55;1138829;-67
2023/01/28 02:32:58;;;;;;;10.90;4.67;;;;;;;-1.43;100.00;101719.72;5115362;55;1140976;-68
2023/01/28 02:38:14;;;;;;;9.50;4.47;;;;;;;-1.45;100.00;101717.58;5133745;55;1141654;-68
2023/01/28 02:43:43;;;;;;;8.13;3.95;;;;;;;-1.38;100.00;101715.80;5175542;55;1138831;-66
2023/01/28 02:48:49;;;;;;;9.63;4.80;;;;;;;-1.38;100.00;101715.80;5128724;55;1138801;-69
2023/01/28 02:54:16;;;;;;;9.97;4.53;;;;;;;-1.39;100.00;101701.09;5161197;55;1138905;-69
2023/01/28 02:59:42;;;;;;;8.60;3.72;;;;;;;-1.33;100.00;101714.00;5141388;56;1138727;-68
2023/01/28 03:05:24;;;;;;;5.37;3.97;;;;;;;-1.31;100.00;101721.77;5125321;56;1138683;-67
2023/01/28 03:10:30;;;;;;;4.83;3.27;;;;;;;-1.42;100.00;101719.28;5123757;56;1139146;-71
2023/01/28 03:38:16;;;;;;;6.70;3.55;;;;;;;-1.30;100.00;101722.20;4965977;57;1141133;-67
2023/01/28 03:43:13;;;;;;;7.23;3.80;;;;;;;-1.24;100.00;101728.20;4998245;57;1138752;-66
2023/01/28 03:48:26;;;;;;;6.73;3.53;;;;;;;-1.24;100.00;101729.50;5162943;55;1138686;-71
2023/01/28 03:53:32;;;;;;;13.25;5.20;;;;;;;-1.26;100.00;101730.38;5114082;55;1138983;-70
2023/01/28 03:58:55;;;;;;;9.23;3.53;;;;;;;-1.29;100.00;101735.59;5142488;55;1140944;-71
2023/01/28 04:03:54;;;;;;;3.23;2.10;;;;;;;-1.32;100.00;101734.31;5157910;55;1138773;-68
2023/01/28 04:09:04;;;;;;;9.53;3.10;;;;;;;-1.29;100.00;101745.98;5205090;55;1138860;-66
2023/01/28 04:14:14;;;;;;;6.17;3.37;;;;;;;-1.29;100.00;101745.98;5161639;55;1138889;-67
2023/01/28 04:19:26;;;;;;;3.53;2.83;;;;;;;-1.23;100.00;101745.49;5145330;55;1138918;-66
2023/01/28 04:24:33;;;;;;;6.07;2.50;;;;;;;-1.20;100.00;101748.03;5102482;55;1138908;-68
2023/01/28 04:29:40;;;;;;;2.47;1.97;;;;;;;-1.18;100.00;101749.31;5194438;55;1138743;-67
2023/01/28 04:35:03;;;;;;;8.70;1.90;;;;;;;-1.16;100.00;101743.24;5197553;54;1138776;-68
2023/01/28 04:40:13;;;;;;;2.80;1.23;;;;;;;-1.15;100.00;101743.67;5105625;55;1139012;-66
2023/01/28 04:45:24;;;;;;;2.70;1.50;;;;;;;-1.22;100.00;101745.89;5135484;55;1139203;-68
2023/01/28 04:50:44;;;;;;;7.17;2.43;;;;;;;-1.27;100.00;101740.34;5119743;55;1138915;-67
2023/01/28 04:55:54;;;;;;;5.50;2.50;;;;;;;-1.18;100.00;101738.94;5108041;55;1139004;-66
2023/01/28 05:01:01;;;;;;;9.20;4.00;;;;;;;-1.18;100.00;101738.94;5108542;56;1139059;-68
2023/01/28 05:06:09;;;;;;;5.03;3.25;;;;;;;-1.08;100.00;101746.64;5127887;56;1138790;-67
2023/01/28 05:11:19;;;;;;;4.67;2.77;;;;;;;-0.99;100.00;101740.48;5110180;56;1138734;-67
2023/01/28 05:16:28;;;;;;;4.13;2.80;;;;;;;-0.88;100.00;101752.90;5149845;56;1139197;-70
2023/01/28 05:21:35;;;;;;;11.93;4.47;;;;;;;-0.85;100.00;101746.82;5179515;55;1223045;-70
2023/01/28 05:26:44;;;;;;;6.62;3.65;;;;;;;-0.86;100.00;101749.85;5184853;55;1140805;-69
2023/01/28 05:31:50;;;;;;;12.78;6.00;;;;;;;-0.87;100.00;101755.06;5185074;55;1138856;-70
2023/01/28 05:36:56;;;;;;;6.33;3.80;;;;;;;-0.84;100.00;101768.02;5180265;55;1141035;-67
2023/01/28 05:42:06;;;;;;;7.50;3.67;;;;;;;-0.87;100.00;101771.50;5100023;56;1138884;-68
2023/01/28 05:47:15;;;;;;;11.13;5.00;;;;;;;-0.88;100.00;101774.11;5171496;55;1139004;-66
2023/01/28 05:52:27;;;;;;;;;;;;;;;-0.85;100.00;101768.89;5120880;55;1141008;-69
2023/01/28 05:57:34;;;;;;;52.00;19.53;;;;;;;-0.86;100.00;101771.92;5112412;56;976064;-71
2023/01/28 06:02:42;;;;;;;64.30;22.73;;;;;;;-0.93;100.00;101771.59;5107638;56;1140803;-70
2023/01/28 06:07:50;;;;;;;19.17;7.10;;;;;;;-0.91;100.00;101776.30;5107173;56;1142846;-70
2023/01/28 06:12:57;;;;;;;22.30;8.45;;;;;;;-0.91;100.00;101771.11;5107288;56;1140894;-66
2023/01/28 06:18:13;;;;;;;18.00;7.20;;;;;;;-0.91;100.00;101777.59;5125612;55;1140823;-71
2023/01/28 06:23:19;;;;;;;16.42;6.08;;;;;;;-0.92;100.00;101778.94;5178554;55;1140854;-67
2023/01/28 06:28:25;;;;;;;10.60;3.87;;;;;;;-0.99;100.00;101787.22;5183884;54;1140780;-70
2023/01/28 06:33:31;;;;;;;6.80;5.30;;;;;;;-1.02;100.00;101775.55;5163130;55;1140900;-67
2023/01/28 06:38:37;;;;;;;6.47;3.53;;;;;;;-1.10;100.00;101780.84;5118788;55;1138660;-69
2023/01/28 06:43:43;;;;;;;4.37;2.47;;;;;;;-1.15;100.00;101782.61;5100317;55;1138715;-70
2023/01/28 06:48:50;;;;;;;10.20;4.65;;;;;;;-1.18;100.00;101789.12;5197599;55;1138749;-70
2023/01/28 06:53:56;;;;;;;4.65;2.85;;;;;;;-1.38;100.00;101790.19;5132418;55;1140903;-66
2023/01/28 06:59:03;;;;;;;33.97;8.73;;;;;;;-1.51;100.00;101796.74;5153483;55;1139067;-71
2023/01/28 07:04:09;;;;;;;26.17;9.37;;;;;;;-1.45;100.00;101794.11;5131477;55;1141085;-68
2023/01/28 07:09:15;;;;;;;23.17;6.63;;;;;;;-1.35;100.00;101801.81;5122388;55;1141092;-68
2023/01/28 07:14:21;;;;;;;14.20;7.17;;;;;;;-1.26;100.00;101806.51;5104762;55;1140735;-71
2023/01/28 07:19:26;;;;;;;8.87;4.67;;;;;;;-1.19;100.00;101813.35;5121402;55;1140771;-66
2023/01/28 07:24:32;;;;;;;29.80;9.97;;;;;;;-1.15;100.00;101824.58;5153153;55;1138902;-65
2023/01/28 07:29:39;;;;;;;44.05;10.45;;;;;;;-1.14;100.00;101824.56;5101798;54;1141081;-71
2023/01/28 07:34:45;;;;;;;33.03;9.07;;;;;;;-1.21;100.00;101818.98;5076294;55;1143285;-71
2023/01/28 07:39:51;;;;;;;41.63;13.50;;;;;;;-1.17;100.00;101816.80;5156924;55;1141074;-69
2023/01/28 07:44:57;;;;;;;45.20;13.13;;;;;;;-1.14;100.00;101814.62;5180308;55;1143028;-68
2023/01/28 07:50:03;;;;;;;26.03;7.83;;;;;;;-1.14;100.00;101814.18;5131850;55;1142887;-70
2023/01/28 07:55:11;;;;;;;43.27;21.23;;;;;;;-1.13;100.00;101813.31;5167411;55;1140943;-69
2023/01/28 08:00:17;;;;;;;57.77;17.03;;;;;;;-1.13;100.00;101809.85;5196254;55;1142987;-66
2023/01/28 08:05:23;;;;;;;23.03;8.70;;;;;;;-1.05;100.00;101817.12;5135771;55;1143149;-67
2023/01/28 08:10:29;;;;;;;39.80;16.10;;;;;;;-1.00;100.00;101813.19;5136453;55;1140865;-68
2023/01/28 08:15:37;;;;;;;76.00;33.13;;;;;;;-1.07;100.00;101808.04;5208025;54;1142868;-70
2023/01/28 08:20:46;;;;;;;425.53;177.93;;;;;;;-1.07;100.00;101808.04;5184360;54;1142921;-69
2023/01/28 08:25:51;;;;;;;21.40;9.58;;;;;;;-0.98;100.00;101813.61;5120910;55;1147115;-68
2023/01/28 08:31:00;;;;;;;16.97;6.17;;;;;;;-0.94;100.00;101815.30;5122396;56;1140895;-67
2023/01/28 08:36:07;;;;;;;27.53;11.03;;;;;;;-0.94;100.00;101816.61;5141082;56;1140924;-67
2023/01/28 08:41:13;;;;;;;25.12;10.08;;;;;;;-0.84;100.00;101826.02;5120894;54;1142931;-69
2023/01/28 08:46:19;;;;;;;35.97;16.40;;;;;;;-0.77;100.00;101815.14;5182650;54;1142967;-65
2023/01/28 08:51:25;;;;;;;38.88;13.22;;;;;;;-0.76;100.00;101821.59;5190993;54;1143244;-68
2023/01/28 08:56:31;;;;;;;20.77;9.97;;;;;;;-0.84;100.00;101822.12;5132576;55;1143063;-70
2023/01/28 09:01:36;;;;;;;32.27;13.00;;;;;;;-0.86;100.00;101825.60;5106831;56;1141324;-66
2023/01/28 09:06:44;;;;;;;31.52;13.60;;;;;;;-0.81;100.00;101824.70;5156660;55;1143069;-67
2023/01/28 09:11:50;;;;;;;31.20;15.50;;;;;;;-0.72;100.00;101830.22;5108045;56;1142931;-66
2023/01/28 09:16:56;;;;;;;20.37;9.23;;;;;;;-0.67;100.00;101823.25;5128137;55;1142964;-70
2023/01/28 09:22:04;;;;;;;25.48;11.75;;;;;;;-0.63;100.00;101826.69;5116726;55;1140981;-69
2023/01/28 09:27:10;;;;;;;28.90;12.57;;;;;;;-0.62;100.00;101824.08;5128793;55;1142841;-66
2023/01/28 09:32:15;;;;;;;28.00;13.03;;;;;;;-0.58;100.00;101830.07;5108905;54;1143147;-66
2023/01/28 09:37:21;;;;;;;58.47;28.37;;;;;;;-0.61;100.00;101830.13;5146961;54;1142967;-71
2023/01/28 09:42:40;;;;;;;25.30;14.27;;;;;;;-0.56;100.00;101823.98;5206308;55;1143101;-68
2023/01/28 09:47:53;;;;;;;21.93;9.53;;;;;;;-0.48;100.00;101827.38;5151810;55;1143132;-67
2023/01/28 09:53:09;;;;;;;13.00;5.70;;;;;;;-0.40;100.00;101828.58;5245893;54;1141056;-69
2023/01/28 09:58:17;;;;;;;17.40;6.53;;;;;;;-0.48;100.00;101833.87;5190671;54;1141043;-67
2023/01/28 10:03:47;;;;;;;32.25;10.40;;;;;;;-0.46;100.00;101835.16;5218775;54;1140947;-67
2023/01/28 10:09:30;;;;;;;22.00;9.33;;;;;;;-0.38;100.00;101833.32;5198023;54;1142918;-68
2023/01/28 10:14:58;;;;;;;23.13;12.33;;;;;;;-0.35;100.00;101825.49;5202337;54;1140753;-67
2023/01/28 10:20:24;;;;;;;17.90;8.33;;;;;;;-0.34;100.00;101838.05;5129237;54;1143068;-67
2023/01/28 10:25:32;;;;;;;27.27;11.53;;;;;;;-0.34;100.00;101837.61;4971383;57;1140943;-68
2023/01/28 10:30:41;;;;;;;45.97;23.53;;;;;;;-0.36;100.00;101835.03;5097406;55;1142865;-69
2023/01/28 10:35:47;;;;;;;38.80;17.53;;;;;;;-0.33;100.00;101838.03;5107227;56;1143014;-69
2023/01/28 10:40:53;;;;;;;29.57;12.10;;;;;;;-0.24;100.00;101837.91;5107362;56;1143312;-68
2023/01/28 10:46:18;;;;;;;16.70;6.03;;;;;;;-0.17;100.00;101838.71;5184270;54;1142978;-67
2023/01/28 10:51:36;;;;;;;8.17;3.70;;;;;;;-0.20;100.00;101837.01;5222659;54;1140757;-70
2023/01/28 10:56:44;;;;;;;4.92;3.15;;;;;;;-0.22;100.00;101836.59;5200077;54;1138660;-72
2023/01/28 11:01:57;;;;;;;19.27;8.43;;;;;;;-0.25;100.00;101844.42;5203695;54;1138870;-70
2023/01/28 11:07:18;;;;;;;13.87;5.10;;;;;;;-0.23;100.00;101839.64;5223514;54;1140895;-69
2023/01/28 11:12:27;;;;;;;20.23;7.87;;;;;;;-0.22;100.00;101854.80;5204677;54;1140775;-70
2023/01/28 11:17:38;;;;;;;10.90;3.73;;;;;;;-0.21;100.00;101850.87;5202757;54;1140848;-69
2023/01/28 11:22:45;;;;;;;59.87;13.67;;;;;;;-0.20;100.00;101832.25;5206739;54;1140835;-66
2023/01/28 11:27:53;;;;;;;26.55;9.08;;;;;;;-0.15;100.00;101833.02;5186287;54;1142951;-69
2023/01/28 11:33:03;;;;;;;26.43;9.60;;;;;;;-0.18;100.00;101821.39;5178172;54;1141079;-69
2023/01/28 11:38:20;;;;;;;30.75;9.35;;;;;;;-0.19;100.00;101824.43;5240617;54;1140949;-67
2023/01/28 11:43:30;;;;;;;18.73;8.77;;;;;;;-0.19;100.00;101827.47;5199577;54;1140897;-70
2023/01/28 11:48:59;;;;;;;3.37;3.07;;;;;;;-0.19;100.00;101810.57;5046046;56;1140936;-69
2023/01/28 11:54:21;;;;;;;29.05;7.65;;;;;;;-0.29;100.00;101820.64;5045571;56;1138880;-70
2023/01/28 11:59:46;;;;;;;34.53;11.53;;;;;;;-0.26;100.00;101816.70;4929394;57;1141024;-70
2023/01/28 12:05:37;;;;;;;22.65;8.38;;;;;;;-0.26;100.00;101816.27;4919175;57;1142827;-71
2023/01/28 12:11:06;;;;;;;11.20;6.40;;;;;;;-0.20;100.00;101817.51;4772641;59;1140900;-66
2023/01/28 12:16:34;;;;;;;2.47;1.72;;;;;;;-0.27;100.00;101799.39;4946926;57;1140982;-71
2023/01/28 12:22:05;;;;;;;9.20;2.93;;;;;;;-0.29;100.00;101803.30;4970469;57;1138861;-69
2023/01/28 12:27:53;;;;;;;9.73;3.20;;;;;;;-0.20;100.00;101799.31;4965538;57;1138908;-70
2023/01/28 12:33:42;;;;;;;12.43;2.93;;;;;;;-0.13;100.00;101793.56;4976924;57;1138921;-69
2023/01/28 12:38:58;;;;;;;27.00;10.13;;;;;;;-0.09;100.00;101788.32;4947716;57;1141053;-70
2023/01/28 12:44:12;;;;;;;23.53;11.50;;;;;;;-0.12;100.00;101790.95;5017328;57;1143001;-67
2023/01/28 12:49:32;;;;;;;4.90;3.60;;;;;;;-0.21;100.00;101781.12;5098696;55;1143067;-67
2023/01/28 12:54:59;;;;;;;6.20;3.30;;;;;;;-0.23;100.00;101785.48;5122706;55;1138992;-70
2023/01/28 13:00:30;;;;;;;13.93;8.17;;;;;;;-0.21;100.00;101785.89;5105827;55;1138896;-66
2023/01/28 13:05:40;;;;;;;11.67;5.70;;;;;;;-0.21;100.00;101794.98;5100231;54;1140859;-65
2023/01/28 13:10:52;;;;;;;27.32;14.47;;;;;;;-0.19;100.00;101794.97;5088159;55;1142776;-69
2023/01/28 13:15:59;;;;;;;15.77;8.07;;;;;;;-0.14;100.00;101793.15;5191526;55;1143108;-67
2023/01/28 13:21:05;;;;;;;13.27;8.90;;;;;;;-0.16;100.00;101787.14;5159083;55;1140889;-67
2023/01/28 13:26:24;;;;;;;58.87;42.43;;;;;;;-0.12;100.00;101794.86;5092011;56;1140914;-69
2023/01/28 13:31:39;;;;;;;12.07;7.37;;;;;;;-0.06;100.00;101791.33;5142629;55;1142866;-66
2023/01/28 13:36:48;;;;;;;8.65;4.80;;;;;;;0.04;100.00;101782.50;5105999;54;1140826;-69
2023/01/28 13:41:57;;;;;;;67.45;20.45;;;;;;;0.05;100.00;101769.92;5136993;55;1136697;-69
2023/01/28 13:47:28;;;;;;;27.63;10.23;;;;;;;0.02;100.00;101768.66;5148578;53;1141085;-69
2023/01/28 13:52:39;;;;;;;16.83;7.30;;;;;;;-0.05;100.00;101769.64;5280877;54;1140858;-71
2023/01/28 13:58:00;;;;;;;7.23;4.13;;;;;;;-0.13;100.00;101776.23;5274703;54;1140881;-67
2023/01/28 14:03:43;;;;;;;19.10;6.43;;;;;;;-0.18;100.00;101774.59;5274839;54;1138757;-68
2023/01/28 14:09:18;;;;;;;13.47;6.03;;;;;;;-0.21;100.00;101770.73;5274624;54;1140917;-67
2023/01/28 14:14:57;;;;;;;20.17;6.03;;;;;;;-0.21;100.00;101772.03;5224532;54;1140959;-70
2023/01/28 14:20:05;;;;;;;32.80;11.57;;;;;;;-0.23;100.00;101765.55;5269981;54;1140939;-66
2023/01/28 14:25:15;;;;;;;86.00;48.33;;;;;;;-0.25;100.00;101767.73;5270401;54;1142868;-69
2023/01/28 14:30:53;;;;;;;17.07;9.17;;;;;;;-0.27;100.00;101776.85;5159762;55;1142824;-67
2023/01/28 14:35:59;;;;;;;16.53;6.13;;;;;;;-0.35;100.00;101767.01;5184101;55;1150541;-66
2023/01/28 14:41:06;;;;;;;25.50;11.03;;;;;;;-0.35;100.00;101767.01;5223809;54;1140892;-68
2023/01/28 14:46:28;;;;;;;44.93;23.77;;;;;;;-0.27;100.00;101758.66;5186037;54;1143019;-70
2023/01/28 14:51:56;;;;;;;7.97;4.30;;;;;;;-0.26;100.00;101773.81;5255383;54;1142883;-70
2023/01/28 14:57:21;;;;;;;22.47;10.57;;;;;;;-0.30;100.00;101759.13;5270908;54;1138793;-69
2023/01/28 15:02:30;;;;;;;11.70;5.28;;;;;;;-0.27;100.00;101759.95;5263074;54;1143118;-67
2023/01/28 15:07:36;;;;;;;23.47;3.63;;;;;;;-0.30;100.00;101754.80;5239394;54;1140771;-68
2023/01/28 15:12:47;;;;;;;40.50;16.70;;;;;;;-0.38;100.00;101760.55;5233308;54;1140895;-67
2023/01/28 15:17:54;;;;;;;15.93;5.03;;;;;;;-0.38;100.00;101748.41;5229551;54;1142916;-67
2023/01/28 15:23:03;;;;;;;26.27;11.93;;;;;;;-0.42;100.00;101761.02;5235673;54;1141046;-68
2023/01/28 15:28:19;;;;;;;23.73;11.27;;;;;;;-0.42;100.00;101755.81;5214716;54;1142962;-70
2023/01/28 15:33:26;;;;;;;10.80;5.43;;;;;;;-0.40;100.00;101745.41;5264444;54;1143009;-70
2023/01/28 15:38:32;;;;;;;103.30;28.80;;;;;;;-0.42;100.00;101743.27;5226098;54;1140800;-71
2023/01/28 15:43:40;;;;;;;41.30;18.33;;;;;;;-0.42;100.00;101735.47;5211686;54;1144987;-70
2023/01/28 15:48:49;;;;;;;139.60;46.03;;;;;;;-0.46;100.00;101734.64;5188902;55;1142871;-69
2023/01/28 15:53:59;;;;;;;139.40;50.07;;;;;;;-0.48;100.00;101731.23;5216185;54;1144934;-67
2023/01/28 15:59:26;;;;;;;55.37;20.73;;;;;;;-0.44;100.00;101735.92;5218759;54;1145085;-68
2023/01/28 16:04:32;;;;;;;61.77;33.00;;;;;;;-0.43;100.00;101741.55;5239078;54;1143077;-67
2023/01/28 16:09:38;;;;;;;34.97;18.47;;;;;;;-0.47;100.00;101739.45;5218705;54;1142884;-68
2023/01/28 16:14:51;;;;;;;23.07;11.00;;;;;;;-0.49;100.00;101748.13;5230968;54;1142989;-67
2023/01/28 16:20:01;;;;;;;19.67;8.95;;;;;;;-0.55;100.00;101753.39;5249932;54;1143089;-69
2023/01/28 16:25:33;;;;;;;14.23;6.87;;;;;;;-0.67;100.00;101751.81;5288948;54;1140681;-67
2023/01/28 16:30:39;;;;;;;14.80;6.10;;;;;;;-0.67;100.00;101751.81;5188549;54;1140876;-69
2023/01/28 16:35:44;;;;;;;24.27;8.63;;;;;;;-0.67;100.00;101753.55;5148670;54;1140867;-67
2023/01/28 16:40:50;;;;;;;25.93;10.10;;;;;;;-0.71;100.00;101756.17;5160119;55;1140950;-69
2023/01/28 16:45:58;;;;;;;23.90;8.98;;;;;;;-0.71;100.00;101776.95;5251559;54;1143035;-68
2023/01/28 16:51:05;;;;;;;25.87;11.07;;;;;;;-0.74;100.00;101786.51;5182652;54;1140910;-67
2023/01/28 16:56:18;;;;;;;53.90;20.13;;;;;;;-0.78;100.00;101780.95;5157210;55;1142969;-71
2023/01/28 17:01:24;;;;;;;24.03;9.60;;;;;;;-0.76;100.00;101798.21;5188340;55;1142901;-72
2023/01/28 17:06:31;;;;;;;16.27;7.60;;;;;;;-0.68;100.00;101787.75;5189099;55;1140990;-70
2023/01/28 17:11:38;;;;;;;46.80;16.10;;;;;;;-0.69;100.00;101796.42;5220371;55;1141068;-68
2023/01/28 17:16:44;;;;;;;17.27;6.73;;;;;;;-0.70;100.00;101797.30;5139748;55;1142952;-72
2023/01/28 17:21:50;;;;;;;14.13;6.40;;;;;;;-0.69;100.00;101803.36;5094267;55;1141026;-67
2023/01/28 17:26:55;;;;;;;39.75;19.90;;;;;;;-0.73;100.00;101802.52;5079710;55;1141001;-71
2023/01/28 17:32:02;;;;;;;15.23;6.97;;;;;;;-0.72;100.00;101800.34;5052747;55;1143031;-70
2023/01/28 17:37:08;;;;;;;20.47;9.67;;;;;;;-0.71;100.00;101798.17;5032540;55;1140749;-70
2023/01/28 17:42:15;;;;;;;18.77;8.10;;;;;;;-0.71;100.00;101799.03;5030339;55;1141031;-66
2023/01/28 17:47:21;;;;;;;76.47;29.60;;;;;;;-0.74;100.00;101783.91;4953718;57;1140797;-72
2023/01/28 17:52:26;;;;;;;82.17;32.27;;;;;;;-0.77;100.00;101788.73;5158615;55;1143023;-73
2023/01/28 17:57:34;;;;;;;91.23;30.57;;;;;;;-0.77;100.00;101783.53;5161408;54;1142949;-71
2023/01/28 18:02:40;;;;;;;22.20;9.90;;;;;;;-0.87;100.00;101788.38;5127858;55;1143015;-69
2023/01/28 18:07:46;;;;;;;16.63;7.50;;;;;;;-0.87;100.00;101788.38;5096691;55;1140854;-72
2023/01/28 18:12:52;;;;;;;67.90;26.30;;;;;;;-0.83;100.00;101796.58;5020204;56;1141036;-71
2023/01/28 18:17:58;;;;;;;13.22;7.53;;;;;;;-0.84;100.00;101806.97;5101621;56;1143169;-73
2023/01/28 18:23:03;;;;;;;16.00;6.58;;;;;;;-0.85;100.00;101812.61;5094223;56;1141040;-69
2023/01/28 18:28:09;;;;;;;35.23;12.67;;;;;;;-0.87;100.00;101820.84;5023971;55;1140902;-75
2023/01/28 18:33:16;;;;;;;19.47;7.60;;;;;;;-0.89;100.00;101813.94;5034682;56;1142965;-68
2023/01/28 18:38:21;;;;;;;13.17;6.33;;;;;;;-0.90;100.00;101809.62;5064202;56;1140793;-72
2023/01/28 18:43:31;;;;;;;13.38;6.60;;;;;;;-0.94;100.00;101826.99;5052726;55;1140817;-73
2023/01/28 18:48:36;;;;;;;25.97;8.23;;;;;;;-0.96;100.00;101825.28;5110150;56;1140833;-72
2023/01/28 18:53:42;;;;;;;25.87;11.27;;;;;;;-0.97;100.00;101820.95;5064241;56;1140854;-72
2023/01/28 18:58:47;;;;;;;23.30;12.17;;;;;;;-0.94;100.00;101820.94;5044313;56;1143101;-68
2023/01/28 19:03:55;;;;;;;21.50;11.90;;;;;;;-0.94;100.00;101805.36;5044189;56;1143089;-71
2023/01/28 19:09:07;;;;;;;16.50;8.40;;;;;;;-0.94;100.00;101786.74;5044440;55;1143019;-70
2023/01/28 19:14:15;;;;;;;22.43;9.77;;;;;;;-0.93;100.00;101792.80;5078282;56;1140871;-70
2023/01/28 19:19:21;;;;;;;20.77;9.73;;;;;;;-0.93;100.00;101792.80;5081984;56;1140823;-73
2023/01/28 19:24:27;;;;;;;20.13;9.47;;;;;;;-0.89;100.00;101794.03;5090965;55;1140888;-70
2023/01/28 19:29:33;;;;;;;26.00;11.30;;;;;;;-0.87;100.00;101801.80;5128855;55;1140780;-68
2023/01/28 19:34:39;;;;;;;26.77;9.87;;;;;;;-0.85;100.00;101802.66;5146437;55;1143061;-72
2023/01/28 19:39:46;;;;;;;24.37;10.40;;;;;;;-0.86;100.00;101795.73;5147699;55;1140951;-73
2023/01/28 19:44:54;;;;;;;32.83;13.38;;;;;;;-0.86;100.00;101802.23;5167496;55;1185562;-69
2023/01/28 19:50:00;;;;;;;26.87;11.53;;;;;;;-0.89;100.00;101796.63;5184391;55;1142940;-70
2023/01/28 19:55:06;;;;;;;75.30;35.93;;;;;;;-0.88;100.00;101804.84;5156287;55;1249067;-74
2023/01/28 20:00:13;;;;;;;22.87;12.00;;;;;;;-0.88;100.00;101804.84;5159206;55;1242224;-71
2023/01/28 20:05:19;;;;;;;33.03;12.03;;;;;;;-0.90;100.00;101799.23;5166733;55;1143554;-71
2023/01/28 20:10:27;;;;;;;24.57;10.13;;;;;;;-0.90;100.00;101798.80;5138391;55;1182162;-71
2023/01/28 20:15:33;;;;;;;27.83;12.77;;;;;;;-0.90;100.00;101796.64;5196800;55;1244648;-75
2023/01/28 20:20:39;;;;;;;26.87;13.37;;;;;;;-0.90;100.00;101785.81;5191159;55;1261408;-70
2023/01/28 20:25:53;;;;;;;33.37;14.73;;;;;;;-0.87;100.00;101796.61;5202056;55;1247611;-70
2023/01/28 20:31:05;;;;;;;54.33;17.23;;;;;;;-0.87;100.00;101788.38;5200070;55;1143020;-73
2023/01/28 20:36:13;;;;;;;43.23;15.70;;;;;;;-0.87;100.00;101778.44;5202686;55;1245097;-72
2023/01/28 20:41:23;;;;;;;72.83;28.03;;;;;;;-0.86;100.00;101784.91;5188653;55;1252697;-72
2023/01/28 20:46:35;;;;;;;63.13;20.47;;;;;;;-0.86;100.00;101774.52;5134174;55;1261366;-73
2023/01/28 20:51:40;;;;;;;36.42;14.20;;;;;;;-0.82;100.00;101780.55;5180989;55;1215202;-71
2023/01/28 20:56:50;;;;;;;25.63;10.67;;;;;;;-0.83;100.00;101778.39;5212466;55;1142888;-68
2023/01/28 21:01:55;;;;;;;64.03;13.50;;;;;;;-0.82;100.00;101788.34;5204295;55;1142867;-74
2023/01/28 21:07:01;;;;;;;20.17;8.93;;;;;;;-0.83;100.00;101793.98;5203643;55;1142958;-70
2023/01/28 21:12:08;;;;;;;21.20;10.53;;;;;;;-0.79;100.00;101798.70;5185288;55;1140944;-70
2023/01/28 21:17:14;;;;;;;30.03;12.90;;;;;;;-0.82;100.00;101788.34;5116921;55;1142907;-70
2023/01/28 21:22:20;;;;;;;24.37;11.47;;;;;;;-0.79;100.00;101797.41;5111024;55;1142902;-74
2023/01/28 21:27:27;;;;;;;29.43;12.37;;;;;;;-0.80;100.00;101788.76;5184494;55;1143336;-70
2023/01/28 21:32:33;;;;;;;20.57;10.43;;;;;;;-0.82;100.00;101764.97;5163458;55;1142860;-71
2023/01/28 21:37:39;;;;;;;23.53;10.60;;;;;;;-0.80;100.00;101772.31;5160131;55;1224452;-69
2023/01/28 21:42:46;;;;;;;24.87;10.83;;;;;;;-0.81;100.00;101775.78;5187822;55;1143132;-70
2023/01/28 21:47:53;;;;;;;24.90;10.67;;;;;;;-0.79;100.00;101783.13;5145385;55;1260081;-69
2023/01/28 21:52:58;;;;;;;28.17;12.55;;;;;;;-0.76;100.00;101781.33;5165026;55;1143072;-69
2023/01/28 21:59:26;;;;;;;29.23;11.93;;;;;;;-0.76;100.00;101778.73;5155357;55;1142894;-70
2023/01/28 22:03:11;;;;;;;28.57;11.48;;;;;;;-0.75;100.00;101780.45;5143134;56;1142869;-74
2023/01/28 22:08:17;;;;;;;29.40;11.80;;;;;;;-0.77;100.00;101767.95;5133068;55;1142881;-73
2023/01/28 22:13:23;;;;;;;26.77;10.03;;;;;;;-0.75;100.00;101780.45;5153099;55;1142963;-71
2023/01/28 22:18:32;;;;;;;25.83;11.43;;;;;;;-0.75;100.00;101783.05;5148858;56;1143091;-70
2023/01/28 22:23:38;;;;;;;24.60;11.13;;;;;;;-0.75;100.00;101770.06;5128675;56;1143031;-67
2023/01/28 22:28:44;;;;;;;25.03;9.90;;;;;;;-0.77;100.00;101764.49;5129317;56;1142920;-70
2023/01/28 22:33:51;;;;;;;31.97;12.73;;;;;;;-0.77;100.00;101764.49;5150228;56;1140773;-71
2023/01/28 22:38:56;;;;;;;26.17;11.17;;;;;;;-0.74;100.00;101759.23;5040718;56;1143020;-77
2023/01/28 22:44:03;;;;;;;25.57;11.03;;;;;;;-0.75;100.00;101767.47;5065570;56;1143076;-71
2023/01/28 22:49:11;;;;;;;23.42;9.40;;;;;;;-0.72;100.00;101763.55;5121533;56;1143160;-74
2023/01/28 22:54:17;;;;;;;47.23;14.30;;;;;;;-0.74;100.00;101760.09;5137694;55;1141062;-70
2023/01/28 22:59:23;;;;;;;26.27;9.73;;;;;;;-0.73;100.00;101763.56;5185707;55;1143089;-71
2023/01/28 23:04:29;;;;;;;22.07;8.80;;;;;;;-0.72;100.00;101757.05;5229730;55;1140815;-76
2023/01/28 23:09:35;;;;;;;21.27;8.20;;;;;;;-0.71;100.00;101750.12;5145683;55;1140850;-72
2023/01/28 23:25:28;;;;;;;22.73;10.10;;;;;;;-0.74;100.00;101723.73;5089346;55;1140889;-70
2023/01/28 23:30:35;;;;;;;25.90;9.93;;;;;;;-0.76;100.00;101713.80;5081703;56;1143095;-72